createdAt,value
2022-10-05T00:00:49.586Z,98179.22
2022-10-05T00:03:18.155Z,98169.78
2022-10-05T00:05:47.516Z,98168.97
2022-10-05T00:08:18.684Z,98166.22
2022-10-05T00:10:48.796Z,98166.22
2022-10-05T00:13:20.385Z,98166.22
2022-10-05T00:15:50.268Z,98158.75
2022-10-05T00:18:20.522Z,98162.63
2022-10-05T00:20:50.373Z,98168.16
2022-10-05T00:23:22.117Z,98166.53
2022-10-05T00:25:52.109Z,98161.81
2022-10-05T00:28:26.703Z,98162.63
2022-10-05T00:30:56.725Z,98150.78
2022-10-05T00:33:25.500Z,98155.47
2022-10-05T00:35:55.974Z,98155.47
2022-10-05T00:38:24.901Z,98150.78
2022-10-05T00:41:06.346Z,98151.59
2022-10-05T00:43:53.460Z,98150.78
2022-10-05T00:46:27.343Z,98149.94
2022-10-05T00:49:04.348Z,98149.94
2022-10-05T00:51:36.858Z,98168.16
2022-10-05T00:54:22.101Z,98166.53
2022-10-05T00:57:08.129Z,98175.63
2022-10-05T00:59:48.756Z,98172.06
2022-10-05T01:02:25.551Z,98169.28
2022-10-05T01:05:00.006Z,98168.47
2022-10-05T01:07:39.218Z,98166.53
2022-10-05T01:10:17.299Z,98164.91
2022-10-05T01:12:54.460Z,98164.91
2022-10-05T01:15:29.651Z,98163.25
2022-10-05T01:18:06.914Z,98164.06
2022-10-05T01:20:50.529Z,98156.09
2022-10-05T01:23:34.123Z,98157.75
2022-10-05T01:26:18.730Z,98150.56
2022-10-05T01:28:53.525Z,98156.09
2022-10-05T01:31:29.482Z,98158.56
2022-10-05T01:34:11.290Z,98163.25
2022-10-05T01:36:49.311Z,98162.44
2022-10-05T01:39:24.585Z,98156.09
2022-10-05T01:42:00.521Z,98148.63
2022-10-05T01:44:34.019Z,98147.81
2022-10-05T01:47:08.710Z,98156.09
2022-10-05T01:49:44.966Z,98154.47
2022-10-05T01:52:28.042Z,98150.56
2022-10-05T01:55:13.082Z,98145.88
2022-10-05T01:57:51.476Z,98140.66
2022-10-05T02:00:21.952Z,98145.06
2022-10-05T02:02:57.701Z,98145.06
2022-10-05T02:05:33.272Z,98146.69
2022-10-05T02:08:04.750Z,98141.16
2022-10-05T02:10:37.429Z,98138.41
2022-10-05T02:13:11.256Z,98142.78
2022-10-05T02:15:45.669Z,98137.28
2022-10-05T02:18:22.341Z,98130.94
2022-10-05T02:20:53.423Z,98130.13
2022-10-05T02:23:26.320Z,98135.63
2022-10-05T02:25:56.908Z,98121.84
2022-10-05T02:28:31.645Z,98117.44
2022-10-05T02:31:06.644Z,98117.44
2022-10-05T02:33:36.212Z,98117.75
2022-10-05T02:36:16.278Z,98122.44
2022-10-05T02:39:01.002Z,98120.81
2022-10-05T02:41:42.974Z,98125.22
2022-10-05T02:44:23.202Z,98125.22
2022-10-05T02:47:03.945Z,98127.16
2022-10-05T02:49:40.548Z,98129.09
2022-10-05T02:52:15.025Z,98127.97
2022-10-05T02:54:53.790Z,98122.44
2022-10-05T02:57:29.306Z,98118.06
2022-10-05T03:00:05.509Z,98114.16
2022-10-05T03:02:42.497Z,98114.16
2022-10-05T03:05:21.115Z,98099.84
2022-10-05T03:07:57.961Z,98099.84
2022-10-05T03:10:35.434Z,98105.38
2022-10-05T03:13:10.122Z,98104.25
2022-10-05T03:16:17.534Z,98101.50
2022-10-05T03:19:02.698Z,98098.72
2022-10-05T03:21:45.122Z,98106.19
2022-10-05T03:24:29.572Z,98107.00
2022-10-05T03:27:07.673Z,98109.78
2022-10-05T03:29:43.459Z,98110.91
2022-10-05T03:32:24.083Z,98117.25
2022-10-05T03:35:01.296Z,98120.81
2022-10-05T03:37:40.313Z,98118.06
2022-10-05T03:40:21.301Z,98118.06
2022-10-05T03:43:00.146Z,98122.44
2022-10-05T03:45:34.230Z,98111.72
2022-10-05T03:48:09.497Z,98116.44
2022-10-05T03:50:46.509Z,98112.53
2022-10-05T03:53:20.612Z,98109.78
2022-10-05T03:55:56.494Z,98111.72
2022-10-05T03:58:29.687Z,98107.00
2022-10-05T04:01:04.958Z,98105.38
2022-10-05T04:03:39.005Z,98110.91
2022-10-05T04:06:14.547Z,98099.84
2022-10-05T04:08:49.442Z,98099.84
2022-10-05T04:11:25.129Z,98092.69
2022-10-05T04:13:58.917Z,98099.03
2022-10-05T04:16:31.915Z,98097.09
2022-10-05T04:19:05.116Z,98096.28
2022-10-05T04:21:42.301Z,98092.69
2022-10-05T04:24:17.234Z,98098.22
2022-10-05T04:26:52.109Z,98097.09
2022-10-05T04:29:31.757Z,98092.69
2022-10-05T04:32:23.984Z,98088.81
2022-10-05T04:35:08.108Z,98086.03
2022-10-05T04:37:48.558Z,98084.41
2022-10-05T04:40:32.282Z,98072.56
2022-10-05T04:43:09.431Z,98077.75
2022-10-05T04:46:01.994Z,98076.13
2022-10-05T04:49:00.118Z,98087.19
2022-10-05T04:51:38.944Z,98087.19
2022-10-05T04:54:21.248Z,98089.94
2022-10-05T04:56:56.234Z,98087.19
2022-10-05T04:59:45.842Z,98087.19
2022-10-05T05:02:23.456Z,98076.44
2022-10-05T05:05:22.624Z,98089.13
2022-10-05T05:08:02.230Z,98087.81
2022-10-05T05:10:59.499Z,98086.78
2022-10-05T05:13:56.234Z,98092.63
2022-10-05T05:16:33.560Z,98093.88
2022-10-05T05:19:40.101Z,98100.72
2022-10-05T05:22:18.893Z,98108.38
2022-10-05T05:25:00.941Z,98110.31
2022-10-05T05:27:40.190Z,98107.88
2022-10-05T05:30:18.152Z,98112.59
2022-10-05T05:32:59.210Z,98121.38
2022-10-05T05:35:42.026Z,98116.66
2022-10-05T05:38:24.857Z,98132.41
2022-10-05T05:41:07.668Z,98132.59
2022-10-05T05:43:52.958Z,98139.75
2022-10-05T05:46:51.287Z,98140.91
2022-10-05T05:49:19.702Z,98136.50
2022-10-05T05:51:55.323Z,98145.91
2022-10-05T05:54:32.217Z,98151.25
2022-10-05T05:57:12.736Z,98144.91
2022-10-05T05:59:59.065Z,98153.81
2022-10-05T06:02:33.079Z,98152.69
2022-10-05T06:05:03.566Z,98156.56
2022-10-05T06:07:32.695Z,98156.88
2022-10-05T06:10:07.213Z,98160.75
2022-10-05T06:12:48.355Z,98161.06
2022-10-05T06:15:26.718Z,98163.31
2022-10-05T06:18:00.141Z,98166.09
2022-10-05T06:20:34.528Z,98161.69
2022-10-05T06:23:08.117Z,98169.97
2022-10-05T06:25:45.464Z,98171.09
2022-10-05T06:28:16.043Z,98176.63
2022-10-05T06:31:04.808Z,98171.09
2022-10-05T06:33:47.074Z,98176.63
2022-10-05T06:36:32.758Z,98176.63
2022-10-05T06:39:22.412Z,98171.41
2022-10-05T06:42:08.097Z,98182.75
2022-10-05T06:45:05.197Z,98188.91
2022-10-05T06:47:56.267Z,98189.50
2022-10-05T06:50:59.118Z,98191.75
2022-10-05T06:53:41.574Z,98190.13
2022-10-05T06:56:17.292Z,98189.50
2022-10-05T06:58:55.690Z,98195.25
2022-10-05T07:01:36.123Z,98191.56
2022-10-05T07:04:37.087Z,98200.84
2022-10-05T07:07:15.850Z,98198.91
2022-10-05T07:09:57.163Z,98196.66
2022-10-05T07:12:42.415Z,98199.09
2022-10-05T07:15:26.501Z,98191.94
2022-10-05T07:18:09.743Z,98196.84
2022-10-05T07:20:51.053Z,98192.97
2022-10-05T07:23:34.768Z,98192.16
2022-10-05T07:26:07.543Z,98194.59
2022-10-05T07:28:48.236Z,98190.72
2022-10-05T07:31:29.961Z,98190.72
2022-10-05T07:34:07.715Z,98195.41
2022-10-05T07:37:00.908Z,98189.09
2022-10-05T07:39:59.029Z,98186.00
2022-10-05T07:42:46.067Z,98186.22
2022-10-05T07:45:28.751Z,98196.13
2022-10-05T07:48:00.157Z,98197.25
2022-10-05T07:50:34.825Z,98197.25
2022-10-05T07:53:12.580Z,98208.31
2022-10-05T07:55:45.984Z,98197.25
2022-10-05T07:58:21.500Z,98208.81
2022-10-05T08:01:00.999Z,98208.31
2022-10-05T08:03:43.885Z,98208.31
2022-10-05T08:06:17.488Z,98207.16
2022-10-05T08:08:53.731Z,98200.53
2022-10-05T08:11:28.447Z,98206.03
2022-10-05T08:14:05.183Z,98205.22
2022-10-05T08:16:38.952Z,98200.53
2022-10-05T08:19:16.470Z,98213.19
2022-10-05T08:21:49.371Z,98209.63
2022-10-05T08:24:35.356Z,98206.88
2022-10-05T08:27:10.867Z,98209.81
2022-10-05T08:29:43.538Z,98207.88
2022-10-05T08:32:18.309Z,98215.34
2022-10-05T08:34:51.175Z,98214.22
2022-10-05T08:37:22.973Z,98218.63
2022-10-05T08:40:01.330Z,98206.44
2022-10-05T08:43:05.307Z,98209.50
2022-10-05T08:46:11.650Z,98207.06
2022-10-05T08:49:05.853Z,98208.19
2022-10-05T08:51:48.289Z,98207.06
2022-10-05T08:54:40.252Z,98209.81
2022-10-05T08:57:33.710Z,98204.31
2022-10-05T09:00:13.671Z,98205.94
2022-10-05T09:03:24.617Z,98200.09
2022-10-05T09:06:23.306Z,98196.91
2022-10-05T09:09:13.504Z,98200.28
2022-10-05T09:11:56.206Z,98192.72
2022-10-05T09:14:56.638Z,98188.69
2022-10-05T09:18:01.883Z,98188.06
2022-10-05T09:20:32.177Z,98178.66
2022-10-05T09:23:27.408Z,98185.81
2022-10-05T09:26:00.569Z,98181.28
2022-10-05T09:28:36.246Z,98179.03
2022-10-05T09:31:24.765Z,98177.28
2022-10-05T09:34:26.058Z,98181.16
2022-10-05T09:37:22.616Z,98177.41
2022-10-05T09:40:28.303Z,98173.63
2022-10-05T09:43:18.975Z,98168.72
2022-10-05T09:46:06.032Z,98178.78
2022-10-05T09:49:18.899Z,98172.75
2022-10-05T09:52:16.428Z,98171.09
2022-10-05T09:55:21.993Z,98165.88
2022-10-05T09:58:30.325Z,98170.59
2022-10-05T10:01:29.004Z,98164.25
2022-10-05T10:04:30.381Z,98151.56
2022-10-05T10:07:37.338Z,98149.31
2022-10-05T10:10:45.452Z,98148.50
2022-10-05T10:13:39.224Z,98142.66
2022-10-05T10:16:42.508Z,98148.38
2022-10-05T10:19:24.023Z,98138.44
2022-10-05T10:22:27.605Z,98142.34
2022-10-05T10:25:19.216Z,98145.09
2022-10-05T10:28:07.685Z,98137.94
2022-10-05T10:30:47.621Z,98134.81
2022-10-05T10:34:00.379Z,98134.31
2022-10-05T10:36:50.353Z,98131.34
2022-10-05T10:39:25.418Z,98133.28
2022-10-05T10:42:08.598Z,98141.59
2022-10-05T10:45:13.645Z,98136.66
2022-10-05T10:47:56.169Z,98136.66
2022-10-05T10:50:53.725Z,98133.38
2022-10-05T10:54:03.463Z,98134.19
2022-10-05T10:56:49.036Z,98129.50
2022-10-05T10:59:46.723Z,98128.38
2022-10-05T11:02:32.791Z,98120.06
2022-10-05T11:05:18.288Z,98119.25
2022-10-05T11:08:03.893Z,98108.22
2022-10-05T11:11:04.511Z,98107.41
2022-10-05T11:13:53.089Z,98101.88
2022-10-05T11:16:39.191Z,98093.72
2022-10-05T11:19:40.019Z,98101.19
2022-10-05T11:22:31.251Z,98089.13
2022-10-05T11:25:31.284Z,98093.81
2022-10-05T11:28:14.338Z,98086.56
2022-10-05T11:31:13.245Z,98082.16
2022-10-05T11:34:17.117Z,98074.38
2022-10-05T11:37:04.187Z,98074.88
2022-10-05T11:39:45.054Z,98070.97
2022-10-05T11:42:52.982Z,98070.34
2022-10-05T11:45:24.410Z,98059.03
2022-10-05T11:48:08.614Z,98060.34
2022-10-05T11:50:44.343Z,98060.84
2022-10-05T11:53:21.740Z,98053.69
2022-10-05T11:55:59.739Z,98045.59
2022-10-05T11:58:34.685Z,98046.41
2022-10-05T12:01:16.201Z,98046.41
2022-10-05T12:03:56.952Z,98043.81
2022-10-05T12:06:51.746Z,98040.44
2022-10-05T12:09:35.225Z,98043.69
2022-10-05T12:12:14.661Z,98039.47
2022-10-05T12:14:54.883Z,98031.19
2022-10-05T12:17:32.510Z,98028.94
2022-10-05T12:20:09.046Z,98030.56
2022-10-05T12:22:42.769Z,98024.41
2022-10-05T12:25:23.223Z,98030.94
2022-10-05T12:27:55.233Z,98018.56
2022-10-05T12:30:30.514Z,98016.59
2022-10-05T12:33:05.923Z,98018.88
2022-10-05T12:35:48.530Z,98015.47
2022-10-05T12:38:28.375Z,98008.81
2022-10-05T12:41:07.128Z,98006.06
2022-10-05T12:43:47.886Z,98003.59
2022-10-05T12:46:25.650Z,98003.28
2022-10-05T12:49:19.291Z,98011.09
2022-10-05T12:51:57.014Z,98000.66
2022-10-05T12:54:40.095Z,98005.69
2022-10-05T12:57:16.447Z,98000.47
2022-10-05T12:59:51.545Z,98007.47
2022-10-05T13:02:29.985Z,98010.53
2022-10-05T13:05:04.213Z,98004.19
2022-10-05T13:08:05.456Z,98006.66
2022-10-05T13:10:37.335Z,97999.03
2022-10-05T13:13:35.231Z,98010.59
2022-10-05T13:16:16.985Z,98001.66
2022-10-05T13:18:59.361Z,98008.69
2022-10-05T13:21:34.828Z,98003.66
2022-10-05T13:24:13.325Z,97998.44
2022-10-05T13:26:45.297Z,97998.13
2022-10-05T13:29:23.101Z,97995.84
2022-10-05T13:31:55.174Z,98004.47
2022-10-05T13:34:34.610Z,98011.63
2022-10-05T13:37:13.262Z,98005.28
2022-10-05T13:39:55.105Z,97993.09
2022-10-05T13:42:33.811Z,97995.22
2022-10-05T13:45:12.473Z,97998.47
2022-10-05T13:47:46.386Z,97998.47
2022-10-05T13:50:18.607Z,98000.09
2022-10-05T13:52:57.155Z,98000.09
2022-10-05T13:55:41.816Z,97992.63
2022-10-05T13:58:19.914Z,97997.03
2022-10-05T14:00:54.045Z,97989.53
2022-10-05T14:03:32.355Z,97992.31
2022-10-05T14:06:03.605Z,97985.16
2022-10-05T14:08:34.666Z,97989.88
2022-10-05T14:14:05.370Z,97985.16
2022-10-05T14:16:35.404Z,97986.28
2022-10-05T14:19:20.076Z,97979.31
2022-10-05T14:21:54.497Z,97982.38
2022-10-05T14:24:43.654Z,97973.28
2022-10-05T14:27:21.910Z,97974.59
2022-10-05T14:30:00.715Z,97981.25
2022-10-05T14:32:33.147Z,97977.34
2022-10-05T14:35:14.988Z,97979.00
2022-10-05T14:37:47.430Z,97977.34
2022-10-05T14:40:33.753Z,97973.47
2022-10-05T14:43:19.988Z,97966.31
2022-10-05T14:45:57.136Z,97964.03
2022-10-05T14:48:28.310Z,97968.75
2022-10-05T14:50:59.216Z,97962.09
2022-10-05T14:53:39.240Z,97965.66
2022-10-05T14:56:23.608Z,97961.59
2022-10-05T14:59:29.642Z,97958.97
2022-10-05T15:02:16.147Z,97957.66
2022-10-05T15:04:52.725Z,97958.28
2022-10-05T15:07:26.175Z,97950.00
2022-10-05T15:10:17.492Z,97951.13
2022-10-05T15:12:48.481Z,97955.03
2022-10-05T15:15:28.536Z,97955.03
2022-10-05T15:18:02.697Z,97953.09
2022-10-05T15:20:38.457Z,97953.91
2022-10-05T15:23:24.827Z,97951.47
2022-10-05T15:26:03.968Z,97958.63
2022-10-05T15:28:39.978Z,97959.44
2022-10-05T15:31:20.095Z,97953.09
2022-10-05T15:33:59.949Z,97959.44
2022-10-05T15:36:37.183Z,97955.53
2022-10-05T15:39:18.830Z,97955.53
2022-10-05T15:41:58.780Z,97964.97
2022-10-05T15:44:46.315Z,97959.44
2022-10-05T15:47:20.220Z,97961.69
2022-10-05T15:50:00.694Z,97974.38
2022-10-05T15:52:38.458Z,97974.38
2022-10-05T15:55:27.787Z,97966.41
2022-10-05T15:58:35.566Z,97971.63
2022-10-05T16:01:08.493Z,97971.13
2022-10-05T16:03:48.833Z,97980.22
2022-10-05T16:06:49.313Z,97981.03
2022-10-05T16:09:34.393Z,97987.69
2022-10-05T16:12:13.176Z,97986.06
2022-10-05T16:14:55.875Z,97991.09
2022-10-05T16:17:50.373Z,97995.50
2022-10-05T16:20:38.263Z,97995.31
2022-10-05T16:23:18.537Z,97995.63
2022-10-05T16:26:00.197Z,97991.88
2022-10-05T16:28:40.258Z,98007.63
2022-10-05T16:31:17.679Z,98003.56
2022-10-05T16:33:59.313Z,98007.47
2022-10-05T16:36:44.390Z,98011.34
2022-10-05T16:39:20.043Z,98016.38
2022-10-05T16:41:56.401Z,98021.41
2022-10-05T16:44:37.144Z,98028.06
2022-10-05T16:47:27.569Z,98030.81
2022-10-05T16:50:04.931Z,98030.81
2022-10-05T16:52:35.443Z,98037.47
2022-10-05T16:55:12.215Z,98044.13
2022-10-05T16:57:46.392Z,98036.97
2022-10-05T17:00:21.763Z,98040.56
2022-10-05T17:03:11.943Z,98042.50
2022-10-05T17:06:12.052Z,98047.03
2022-10-05T17:08:59.522Z,98051.75
2022-10-05T17:11:39.622Z,98054.50
2022-10-05T17:14:20.123Z,98055.31
2022-10-05T17:17:03.312Z,98053.19
2022-10-05T17:19:46.594Z,98064.22
2022-10-05T17:22:25.151Z,98069.25
2022-10-05T17:25:01.581Z,98081.41
2022-10-05T17:27:50.934Z,98075.88
2022-10-05T17:30:23.532Z,98078.97
2022-10-05T17:32:58.777Z,98087.56
2022-10-05T17:35:52.001Z,98082.66
2022-10-05T17:38:23.232Z,98088.19
2022-10-05T17:41:17.579Z,98095.97
2022-10-05T17:44:24.331Z,98091.25
2022-10-05T17:46:56.505Z,98098.41
2022-10-05T17:49:47.788Z,98103.44
2022-10-05T17:52:43.591Z,98103.44
2022-10-05T17:55:47.496Z,98102.63
2022-10-05T17:59:01.622Z,98108.66
2022-10-05T18:01:33.828Z,98116.44
2022-10-05T18:04:38.753Z,98110.91
2022-10-05T18:07:22.830Z,98112.59
2022-10-05T18:09:59.427Z,98109.44
2022-10-05T18:12:47.218Z,98116.16
2022-10-05T18:15:48.378Z,98113.47
2022-10-05T18:18:55.757Z,98113.84
2022-10-05T18:21:38.781Z,98113.38
2022-10-05T18:24:38.067Z,98115.22
2022-10-05T18:27:25.493Z,98115.38
2022-10-05T18:30:06.379Z,98119.47
2022-10-05T18:32:51.956Z,98115.56
2022-10-05T18:35:24.502Z,98120.47
2022-10-05T18:38:03.568Z,98119.34
2022-10-05T18:40:45.255Z,98121.78
2022-10-05T18:43:29.016Z,98131.91
2022-10-05T18:46:23.192Z,98132.41
2022-10-05T18:49:05.180Z,98125.25
2022-10-05T18:51:51.558Z,98126.38
2022-10-05T18:57:28.865Z,98136.28
2022-10-05T19:00:02.893Z,98140.69
2022-10-05T19:02:38.381Z,98145.09
2022-10-05T19:05:46.315Z,98150.13
2022-10-05T19:08:19.043Z,98153.53
2022-10-05T19:10:55.690Z,98167.34
2022-10-05T19:13:37.916Z,98165.72
2022-10-05T19:16:27.224Z,98175.13
2022-10-05T19:19:12.493Z,98180.66
2022-10-05T19:21:49.782Z,98184.56
2022-10-05T19:24:32.290Z,98186.19
2022-10-05T19:27:08.005Z,98179.84
2022-10-05T19:29:58.698Z,98176.25
2022-10-05T19:32:40.181Z,98182.94
2022-10-05T19:35:24.133Z,98177.41
2022-10-05T19:38:03.337Z,98182.94
2022-10-05T19:40:38.827Z,98182.94
2022-10-05T19:43:22.214Z,98189.59
2022-10-05T19:46:01.230Z,98193.16
2022-10-05T19:48:37.411Z,98203.41
2022-10-05T19:51:13.541Z,98205.34
2022-10-05T19:53:46.948Z,98217.22
2022-10-05T19:56:20.853Z,98208.13
2022-10-05T19:58:53.976Z,98220.00
2022-10-05T20:01:27.436Z,98222.75
2022-10-05T20:03:57.613Z,98227.78
2022-10-05T20:06:27.024Z,98223.06
2022-10-05T20:08:59.781Z,98235.25
2022-10-05T20:11:29.369Z,98240.47
2022-10-05T20:14:22.071Z,98244.38
2022-10-05T20:17:37.968Z,98251.03
2022-10-05T20:20:36.103Z,98257.69
2022-10-05T20:23:21.525Z,98267.13
2022-10-05T20:26:04.616Z,98264.66
2022-10-05T20:28:33.613Z,98278.78
2022-10-05T20:31:03.838Z,98282.69
2022-10-05T20:33:34.641Z,98283.81
2022-10-05T20:36:04.434Z,98283.31
2022-10-05T20:38:40.593Z,98288.84
2022-10-05T20:41:09.555Z,98296.63
2022-10-05T20:43:39.220Z,98301.34
2022-10-05T20:46:08.979Z,98306.88
2022-10-05T20:48:37.339Z,98308.31
2022-10-05T20:51:05.963Z,98313.84
2022-10-05T20:53:34.547Z,98320.78
2022-10-05T20:56:04.389Z,98329.41
2022-10-05T20:58:32.734Z,98334.94
2022-10-05T21:01:26.998Z,98333.28
2022-10-05T21:03:56.924Z,98343.53
2022-10-05T21:06:28.058Z,98341.06
2022-10-05T21:08:56.429Z,98344.97
2022-10-05T21:11:24.915Z,98347.72
2022-10-05T21:13:54.427Z,98355.19
2022-10-05T21:16:24.722Z,98360.72
2022-10-05T21:18:53.578Z,98359.09
2022-10-05T21:21:27.229Z,98358.28
2022-10-05T21:23:55.720Z,98361.03
2022-10-05T21:26:24.089Z,98358.28
2022-10-05T21:28:52.453Z,98363.81
2022-10-05T21:31:20.857Z,98362.16
2022-10-05T21:33:49.226Z,98359.41
2022-10-05T21:36:22.468Z,98359.41
2022-10-05T21:38:55.472Z,98367.69
2022-10-05T21:41:24.194Z,98368.81
2022-10-05T21:43:52.856Z,98373.22
2022-10-05T21:46:25.742Z,98371.59
2022-10-05T21:48:55.783Z,98377.09
2022-10-05T21:51:26.221Z,98382.63
2022-10-05T21:53:58.946Z,98385.69
2022-10-05T21:56:31.216Z,98390.94
2022-10-05T21:59:01.862Z,98399.22
2022-10-05T22:01:30.327Z,98405.88
2022-10-05T22:03:58.763Z,98397.56
2022-10-05T22:06:27.121Z,98401.16
2022-10-05T22:08:56.789Z,98407.00
2022-10-05T22:11:25.255Z,98405.03
2022-10-05T22:13:54.661Z,98411.69
2022-10-05T22:16:25.387Z,98420.81
2022-10-05T22:18:54.048Z,98418.03
2022-10-05T22:21:22.453Z,98421.94
2022-10-05T22:23:50.905Z,98421.94
2022-10-05T22:26:23.186Z,98420.00
2022-10-05T22:28:55.412Z,98421.94
2022-10-05T22:31:24.193Z,98427.47
2022-10-05T22:33:52.882Z,98433.00
2022-10-05T22:36:21.751Z,98430.22
2022-10-05T22:38:50.153Z,98428.28
2022-10-05T22:41:20.454Z,98431.34
2022-10-05T22:43:50.211Z,98425.81
2022-10-05T22:46:19.777Z,98424.19
2022-10-05T22:48:48.221Z,98426.66
2022-10-05T22:51:16.857Z,98432.47
2022-10-05T22:53:45.257Z,98429.72
2022-10-05T22:56:14.818Z,98430.03
2022-10-05T22:58:45.585Z,98424.19
2022-10-05T23:01:16.533Z,98432.47
2022-10-05T23:03:45.657Z,98430.84
2022-10-05T23:06:16.679Z,98435.25
2022-10-05T23:08:46.005Z,98434.41
2022-10-05T23:11:16.247Z,98433.59
2022-10-05T23:13:46.207Z,98433.59
2022-10-05T23:16:16.770Z,98444.66
2022-10-05T23:18:46.713Z,98439.13
2022-10-05T23:21:15.225Z,98437.50
2022-10-05T23:23:47.499Z,98441.06
2022-10-05T23:26:16.877Z,98445.78
2022-10-05T23:28:47.529Z,98436.66
2022-10-05T23:31:19.712Z,98445.78
2022-10-05T23:33:48.454Z,98449.66
2022-10-05T23:36:19.623Z,98452.44
2022-10-05T23:38:48.215Z,98453.25
2022-10-05T23:41:17.187Z,98448.53
2022-10-05T23:43:47.192Z,98459.09
2022-10-05T23:46:16.134Z,98458.78
2022-10-05T23:48:44.980Z,98456.84
2022-10-05T23:51:15.460Z,98461.53
2022-10-05T23:53:43.978Z,98465.13
2022-10-05T23:56:13.139Z,98462.66
2022-10-05T23:58:41.974Z,98471.78
